createdAt,value
2018-07-26T00:02:06.641Z,63.10
2018-07-26T00:04:35.893Z,62.53
2018-07-26T00:07:04.914Z,63.64
2018-07-26T00:09:33.746Z,63.34
2018-07-26T00:12:02.694Z,62.26
2018-07-26T00:14:31.936Z,63.07
2018-07-26T00:17:01.075Z,62.27
2018-07-26T00:19:30.027Z,62.38
2018-07-26T00:21:59.156Z,63.18
2018-07-26T00:24:28.023Z,63.19
2018-07-26T00:26:57.192Z,62.65
2018-07-26T00:29:26.224Z,62.91
2018-07-26T00:31:55.231Z,63.05
2018-07-26T00:34:24.599Z,63.28
2018-07-26T00:36:53.817Z,63.85
2018-07-26T00:39:23.159Z,63.91
2018-07-26T00:41:52.062Z,63.83
2018-07-26T00:44:20.985Z,64.50
2018-07-26T00:46:50.097Z,63.90
2018-07-26T00:49:19.103Z,64.31
2018-07-26T00:51:48.142Z,63.70
2018-07-26T00:54:17.280Z,64.12
2018-07-26T00:56:46.610Z,64.71
2018-07-26T00:59:15.634Z,64.54
2018-07-26T01:01:44.656Z,63.71
2018-07-26T01:04:13.554Z,63.59
2018-07-26T01:06:42.884Z,64.66
2018-07-26T01:09:12.774Z,64.12
2018-07-26T01:11:42.018Z,64.86
2018-07-26T01:14:11.173Z,65.20
2018-07-26T01:16:40.260Z,65.03
2018-07-26T01:19:09.027Z,65.24
2018-07-26T01:21:37.843Z,65.12
2018-07-26T01:24:06.921Z,66.14
2018-07-26T01:26:35.861Z,65.28
2018-07-26T01:29:05.022Z,65.26
2018-07-26T01:31:34.293Z,65.18
2018-07-26T01:34:03.379Z,65.99
2018-07-26T01:36:32.223Z,65.78
2018-07-26T01:39:01.239Z,65.70
2018-07-26T01:41:30.351Z,66.40
2018-07-26T01:44:10.267Z,65.50
2018-07-26T01:46:39.375Z,65.79
2018-07-26T01:49:08.168Z,64.17
2018-07-26T01:51:37.398Z,64.53
2018-07-26T01:54:06.505Z,64.78
2018-07-26T01:56:35.458Z,63.75
2018-07-26T01:59:04.487Z,64.39
2018-07-26T02:01:33.381Z,64.17
2018-07-26T02:04:02.559Z,64.66
2018-07-26T02:06:31.786Z,65.71
2018-07-26T02:09:00.951Z,65.77
2018-07-26T02:11:30.212Z,65.52
2018-07-26T02:13:59.470Z,64.97
2018-07-26T02:16:28.684Z,65.41
2018-07-26T02:18:57.758Z,65.53
2018-07-26T02:21:26.958Z,65.03
2018-07-26T02:23:56.211Z,65.54
2018-07-26T02:26:25.233Z,64.98
2018-07-26T02:28:54.242Z,65.48
2018-07-26T02:31:23.446Z,66.03
2018-07-26T02:33:52.324Z,66.01
2018-07-26T02:36:21.448Z,65.68
2018-07-26T02:38:50.643Z,66.28
2018-07-26T02:41:19.690Z,66.50
2018-07-26T02:43:48.698Z,66.38
2018-07-26T02:46:17.627Z,66.01
2018-07-26T02:48:46.632Z,66.99
2018-07-26T02:51:15.600Z,66.22
2018-07-26T02:53:44.790Z,66.99
2018-07-26T02:56:13.810Z,67.27
2018-07-26T02:58:42.941Z,67.91
2018-07-26T03:01:11.997Z,67.89
2018-07-26T03:03:41.167Z,68.61
2018-07-26T03:06:10.289Z,66.39
2018-07-26T03:08:39.060Z,65.94
2018-07-26T03:11:08.163Z,68.28
2018-07-26T03:13:37.081Z,68.45
2018-07-26T03:16:06.446Z,68.55
2018-07-26T03:18:35.452Z,68.88
2018-07-26T03:21:04.605Z,68.02
2018-07-26T03:23:33.331Z,68.75
2018-07-26T03:26:02.411Z,68.33
2018-07-26T03:28:31.351Z,69.62
2018-07-26T03:31:00.365Z,70.06
2018-07-26T03:33:29.404Z,69.85
2018-07-26T03:35:58.703Z,70.06
2018-07-26T03:38:27.578Z,70.02
2018-07-26T03:40:56.842Z,69.82
2018-07-26T03:43:26.278Z,69.54
2018-07-26T03:45:55.433Z,70.04
2018-07-26T03:48:24.361Z,70.81
2018-07-26T03:50:53.427Z,70.22
2018-07-26T03:53:22.751Z,69.78
2018-07-26T03:55:51.957Z,69.84
2018-07-26T03:58:21.196Z,69.81
2018-07-26T04:00:49.922Z,69.44
2018-07-26T04:03:18.920Z,66.71
2018-07-26T04:05:48.088Z,66.03
2018-07-26T04:08:17.363Z,65.97
2018-07-26T04:10:46.327Z,66.64
2018-07-26T04:13:15.461Z,67.01
2018-07-26T04:15:44.323Z,66.85
2018-07-26T04:18:13.114Z,65.82
2018-07-26T04:20:41.978Z,65.97
2018-07-26T04:23:11.143Z,65.23
2018-07-26T04:25:40.154Z,65.64
2018-07-26T04:28:09.168Z,65.63
2018-07-26T04:30:38.337Z,65.64
2018-07-26T04:33:07.605Z,67.71
2018-07-26T04:35:36.652Z,68.31
2018-07-26T04:38:05.885Z,69.46
2018-07-26T04:40:35.208Z,68.44
2018-07-26T04:43:04.632Z,69.55
2018-07-26T04:45:33.778Z,69.03
2018-07-26T04:48:02.795Z,69.02
2018-07-26T04:50:31.911Z,68.70
2018-07-26T04:53:00.722Z,67.87
2018-07-26T04:55:29.753Z,68.48
2018-07-26T04:57:58.840Z,68.33
2018-07-26T05:00:27.789Z,67.36
2018-07-26T05:05:24.889Z,67.76
2018-07-26T05:07:53.888Z,67.97
2018-07-26T05:10:22.755Z,67.80
2018-07-26T05:12:51.842Z,67.17
2018-07-26T05:15:20.739Z,67.01
2018-07-26T05:17:49.903Z,68.28
2018-07-26T05:20:18.929Z,66.37
2018-07-26T05:22:48.062Z,66.29
2018-07-26T05:25:17.098Z,66.26
2018-07-26T05:27:46.382Z,65.64
2018-07-26T05:30:15.478Z,66.02
2018-07-26T05:32:44.618Z,66.42
2018-07-26T05:35:13.658Z,66.33
2018-07-26T05:37:42.915Z,66.88
2018-07-26T05:40:11.851Z,66.85
2018-07-26T05:42:40.949Z,66.44
2018-07-26T05:45:09.949Z,65.58
2018-07-26T05:47:38.762Z,65.52
2018-07-26T05:50:08.158Z,65.22
2018-07-26T05:52:37.448Z,65.51
2018-07-26T05:55:07.231Z,65.36
2018-07-26T05:57:36.591Z,65.28
2018-07-26T06:00:11.043Z,65.02
2018-07-26T06:02:40.286Z,63.77
2018-07-26T06:05:09.829Z,64.79
2018-07-26T06:07:39.153Z,64.16
2018-07-26T06:10:08.845Z,63.68
2018-07-26T06:12:38.083Z,63.36
2018-07-26T06:15:09.724Z,62.81
2018-07-26T06:17:38.890Z,62.06
2018-07-26T06:20:10.156Z,61.43
2018-07-26T06:22:39.753Z,61.68
2018-07-26T06:25:09.389Z,61.86
2018-07-26T06:27:38.434Z,62.13
2018-07-26T06:30:10.527Z,61.88
2018-07-26T06:32:39.490Z,60.53
2018-07-26T06:35:09.439Z,60.33
2018-07-26T06:37:38.651Z,61.07
2018-07-26T06:40:07.830Z,61.41
2018-07-26T06:42:37.130Z,61.86
2018-07-26T06:45:07.658Z,60.76
2018-07-26T06:47:36.811Z,59.88
2018-07-26T06:50:07.540Z,58.95
2018-07-26T06:52:36.755Z,58.54
2018-07-26T06:55:05.900Z,58.38
2018-07-26T06:57:35.130Z,59.15
2018-07-26T07:00:04.997Z,57.40
2018-07-26T07:02:34.228Z,56.35
2018-07-26T07:05:03.291Z,57.93
2018-07-26T07:07:32.332Z,56.58
2018-07-26T07:10:01.221Z,56.84
2018-07-26T07:12:30.271Z,56.81
2018-07-26T07:14:59.509Z,57.91
2018-07-26T07:17:28.507Z,57.48
2018-07-26T07:19:57.797Z,57.04
2018-07-26T07:22:27.033Z,56.54
2018-07-26T07:24:56.192Z,57.49
2018-07-26T07:27:25.328Z,55.57
2018-07-26T07:29:54.438Z,55.70
2018-07-26T07:32:23.508Z,55.24
2018-07-26T07:34:52.498Z,54.23
2018-07-26T07:37:21.627Z,54.24
2018-07-26T07:39:50.443Z,54.58
2018-07-26T07:42:19.501Z,54.27
2018-07-26T07:44:48.551Z,54.12
2018-07-26T07:47:17.779Z,52.85
2018-07-26T07:49:46.863Z,52.15
2018-07-26T07:52:16.824Z,52.36
2018-07-26T07:54:45.834Z,53.51
2018-07-26T07:57:14.900Z,53.29
2018-07-26T07:59:43.957Z,53.05
2018-07-26T08:02:13.174Z,51.57
2018-07-26T08:04:42.235Z,51.54
2018-07-26T08:07:11.417Z,51.78
2018-07-26T08:09:40.207Z,51.42
2018-07-26T08:12:09.418Z,50.92
2018-07-26T08:14:38.594Z,51.12
2018-07-26T08:17:07.807Z,50.64
2018-07-26T08:19:37.833Z,50.46
2018-07-26T08:22:06.894Z,50.74
2018-07-26T08:24:36.065Z,49.61
2018-07-26T08:27:05.284Z,49.13
2018-07-26T08:29:34.094Z,48.88
2018-07-26T08:32:03.129Z,49.25
2018-07-26T08:34:32.215Z,49.04
2018-07-26T08:37:01.354Z,49.83
2018-07-26T08:39:30.534Z,48.65
2018-07-26T08:41:59.623Z,47.61
2018-07-26T08:44:28.474Z,47.18
2018-07-26T08:46:57.376Z,48.79
2018-07-26T08:49:26.425Z,49.14
2018-07-26T08:51:55.710Z,48.27
2018-07-26T08:54:24.845Z,46.96
2018-07-26T08:56:53.966Z,49.09
2018-07-26T08:59:23.289Z,47.94
2018-07-26T09:01:52.155Z,47.66
2018-07-26T09:04:21.408Z,46.61
2018-07-26T09:06:50.688Z,46.49
2018-07-26T09:09:19.918Z,47.15
2018-07-26T09:11:49.101Z,45.97
2018-07-26T09:14:18.735Z,43.68
2018-07-26T09:16:47.883Z,45.67
2018-07-26T09:19:16.950Z,44.93
2018-07-26T09:21:45.960Z,45.35
2018-07-26T09:24:14.769Z,44.22
2018-07-26T09:26:43.810Z,42.35
2018-07-26T09:29:12.808Z,40.12
2018-07-26T09:31:41.898Z,39.85
2018-07-26T09:34:11.106Z,39.99
2018-07-26T09:36:40.490Z,37.16
2018-07-26T09:39:14.812Z,34.65
2018-07-26T09:41:43.983Z,30.74
2018-07-26T09:44:13.196Z,29.62
2018-07-26T09:46:42.420Z,27.89
2018-07-26T09:49:11.586Z,27.06
2018-07-26T09:51:40.750Z,25.34
2018-07-26T09:54:09.738Z,24.00
2018-07-26T09:56:38.984Z,22.98
2018-07-26T09:59:08.207Z,21.86
2018-07-26T10:01:38.709Z,21.14
2018-07-26T10:04:07.779Z,20.06
2018-07-26T10:06:36.955Z,19.92
2018-07-26T10:09:09.494Z,19.33
2018-07-26T10:11:38.550Z,19.25
2018-07-26T10:14:07.739Z,18.77
2018-07-26T10:16:36.892Z,20.74
2018-07-26T10:19:05.871Z,20.44
2018-07-26T10:21:34.634Z,21.41
2018-07-26T10:24:03.834Z,21.46
2018-07-26T10:26:32.883Z,22.38
2018-07-26T10:29:01.963Z,24.82
2018-07-26T10:31:30.814Z,27.08
2018-07-26T10:33:59.901Z,29.33
2018-07-26T10:36:28.942Z,30.30
2018-07-26T10:38:57.841Z,33.20
2018-07-26T10:41:26.943Z,33.62
2018-07-26T10:43:56.105Z,32.90
2018-07-26T10:46:25.472Z,32.89
2018-07-26T10:48:55.004Z,32.22
2018-07-26T10:51:23.976Z,30.90
2018-07-26T10:53:53.107Z,28.04
2018-07-26T10:56:21.958Z,25.98
2018-07-26T10:58:50.984Z,23.87
2018-07-26T11:01:20.207Z,22.43
2018-07-26T11:03:49.373Z,21.51
2018-07-26T11:06:18.414Z,20.78
2018-07-26T11:08:47.726Z,20.69
2018-07-26T11:11:16.538Z,21.02
2018-07-26T11:13:45.814Z,21.55
2018-07-26T11:16:14.815Z,21.77
2018-07-26T11:18:43.774Z,23.04
2018-07-26T11:21:13.093Z,20.74
2018-07-26T11:23:42.294Z,19.78
2018-07-26T11:26:11.347Z,19.53
2018-07-26T11:28:40.577Z,19.66
2018-07-26T11:31:09.426Z,21.70
2018-07-26T11:33:38.530Z,22.35
2018-07-26T11:36:08.229Z,24.10
2018-07-26T11:38:37.119Z,24.66
2018-07-26T11:41:06.359Z,23.61
2018-07-26T11:43:35.542Z,22.92
2018-07-26T11:46:04.738Z,21.87
2018-07-26T11:48:33.818Z,22.60
2018-07-26T11:51:03.038Z,23.08
2018-07-26T11:53:32.243Z,22.33
2018-07-26T11:56:01.391Z,22.44
2018-07-26T11:58:30.542Z,22.82
2018-07-26T12:00:59.642Z,22.52
2018-07-26T12:03:28.886Z,23.85
2018-07-26T12:05:58.222Z,27.22
2018-07-26T12:08:26.897Z,26.44
2018-07-26T12:10:56.071Z,27.39
2018-07-26T12:13:25.196Z,28.03
2018-07-26T12:15:54.458Z,26.64
2018-07-26T12:18:23.663Z,25.72
2018-07-26T12:20:52.929Z,24.93
2018-07-26T12:23:22.019Z,23.55
2018-07-26T12:25:51.047Z,24.04
2018-07-26T12:28:19.818Z,22.56
2018-07-26T12:30:49.006Z,23.08
2018-07-26T12:33:18.347Z,22.57
2018-07-26T12:35:47.411Z,23.01
2018-07-26T12:38:16.592Z,23.07
2018-07-26T12:40:45.949Z,25.14
2018-07-26T12:43:14.763Z,24.18
2018-07-26T12:45:43.850Z,24.87
2018-07-26T12:48:12.695Z,23.00
2018-07-26T12:50:41.907Z,22.35
2018-07-26T12:53:11.224Z,20.69
2018-07-26T12:55:40.124Z,20.34
2018-07-26T12:58:09.036Z,20.88
2018-07-26T13:00:38.261Z,20.31
2018-07-26T13:03:07.130Z,22.96
2018-07-26T13:05:36.575Z,24.77
2018-07-26T13:08:05.822Z,25.90
2018-07-26T13:10:34.779Z,26.61
2018-07-26T13:13:03.928Z,28.09
2018-07-26T13:15:32.977Z,28.71
2018-07-26T13:18:01.833Z,31.33
2018-07-26T13:20:30.889Z,31.43
2018-07-26T13:22:59.888Z,32.98
2018-07-26T13:25:29.083Z,34.10
2018-07-26T13:27:58.222Z,35.18
2018-07-26T13:30:27.496Z,35.75
2018-07-26T13:32:56.835Z,36.39
2018-07-26T13:35:26.084Z,37.58
2018-07-26T13:37:55.267Z,39.20
2018-07-26T13:40:24.294Z,41.36
2018-07-26T13:42:53.257Z,41.42
2018-07-26T13:45:22.438Z,41.35
2018-07-26T13:47:51.605Z,42.48
2018-07-26T13:50:20.807Z,41.55
2018-07-26T13:52:50.003Z,43.83
2018-07-26T13:55:19.166Z,42.84
2018-07-26T13:57:48.405Z,43.98
2018-07-26T14:00:17.400Z,42.51
2018-07-26T14:02:46.538Z,42.17
2018-07-26T14:05:16.007Z,41.84
2018-07-26T14:07:45.071Z,42.95
2018-07-26T14:10:14.030Z,43.85
2018-07-26T14:12:42.806Z,43.85
2018-07-26T14:15:12.036Z,43.41
2018-07-26T14:17:41.161Z,43.62
2018-07-26T14:20:12.123Z,43.96
2018-07-26T14:22:41.776Z,44.51
2018-07-26T14:25:11.070Z,45.13
2018-07-26T14:27:40.234Z,45.50
2018-07-26T14:30:10.166Z,44.70
2018-07-26T14:32:39.010Z,45.50
2018-07-26T14:35:07.972Z,44.66
2018-07-26T14:37:36.753Z,45.68
2018-07-26T14:40:06.563Z,46.69
2018-07-26T14:42:35.742Z,45.33
2018-07-26T14:45:05.653Z,44.70
2018-07-26T14:47:34.707Z,46.14
2018-07-26T14:50:03.874Z,45.14
2018-07-26T14:52:32.975Z,44.78
2018-07-26T14:55:02.094Z,45.64
2018-07-26T14:57:30.981Z,46.83
2018-07-26T15:00:00.284Z,50.63
2018-07-26T15:02:29.932Z,51.89
2018-07-26T15:04:59.201Z,54.57
2018-07-26T15:07:28.667Z,53.11
2018-07-26T15:09:57.776Z,55.16
2018-07-26T15:12:26.939Z,56.40
2018-07-26T15:14:55.977Z,57.63
2018-07-26T15:17:24.808Z,59.10
2018-07-26T15:19:54.095Z,58.40
2018-07-26T15:22:22.921Z,61.02
2018-07-26T15:24:51.889Z,58.56
2018-07-26T15:27:20.751Z,60.11
2018-07-26T15:29:49.721Z,60.04
2018-07-26T15:32:18.680Z,54.92
2018-07-26T15:34:47.768Z,58.67
2018-07-26T15:37:16.895Z,58.07
2018-07-26T15:39:46.126Z,53.72
2018-07-26T15:42:15.294Z,57.59
2018-07-26T15:44:44.481Z,58.20
2018-07-26T15:47:13.598Z,58.64
2018-07-26T15:49:42.640Z,57.99
2018-07-26T15:52:11.703Z,58.49
2018-07-26T15:54:40.719Z,57.38
2018-07-26T15:57:09.878Z,58.63
2018-07-26T15:59:39.049Z,60.19
2018-07-26T16:02:08.179Z,59.35
2018-07-26T16:04:37.452Z,60.52
2018-07-26T16:07:06.597Z,60.76
2018-07-26T16:09:35.505Z,60.26
2018-07-26T16:12:04.637Z,60.09
2018-07-26T16:14:33.820Z,59.98
2018-07-26T16:17:02.852Z,57.75
2018-07-26T16:19:32.042Z,58.01
2018-07-26T16:22:01.403Z,56.04
2018-07-26T16:24:30.618Z,56.41
2018-07-26T16:26:59.889Z,56.25
2018-07-26T16:29:28.933Z,57.66
2018-07-26T16:31:58.147Z,56.91
2018-07-26T16:34:27.284Z,55.56
2018-07-26T16:36:56.519Z,55.60
2018-07-26T16:39:25.753Z,57.46
2018-07-26T16:41:54.520Z,59.16
2018-07-26T16:44:23.401Z,57.48
2018-07-26T16:46:52.429Z,57.84
2018-07-26T16:49:21.711Z,56.96
2018-07-26T16:51:50.630Z,57.32
2018-07-26T16:54:19.838Z,57.53
2018-07-26T16:56:48.650Z,58.88
2018-07-26T16:59:17.502Z,59.59
2018-07-26T17:01:46.715Z,58.54
2018-07-26T17:04:15.805Z,57.97
2018-07-26T17:06:44.959Z,58.83
2018-07-26T17:09:14.054Z,58.20
2018-07-26T17:11:43.242Z,59.94
2018-07-26T17:14:12.285Z,59.94
2018-07-26T17:16:41.639Z,60.77
2018-07-26T17:19:10.966Z,60.47
2018-07-26T17:21:39.835Z,60.60
2018-07-26T17:24:08.922Z,59.55
2018-07-26T17:26:38.123Z,59.10
2018-07-26T17:29:07.331Z,58.83
2018-07-26T17:31:36.719Z,59.06
2018-07-26T17:34:05.975Z,59.92
2018-07-26T17:36:35.292Z,59.86
2018-07-26T17:39:05.246Z,60.68
2018-07-26T17:41:34.115Z,60.82
2018-07-26T17:44:03.114Z,61.30
2018-07-26T17:46:32.039Z,60.63
2018-07-26T17:49:00.997Z,60.84
2018-07-26T17:51:30.235Z,61.50
2018-07-26T17:53:59.341Z,61.91
2018-07-26T17:56:28.470Z,62.22
2018-07-26T17:58:57.739Z,62.09
2018-07-26T18:01:27.054Z,63.01
2018-07-26T18:03:56.305Z,64.24
2018-07-26T18:06:25.575Z,65.21
2018-07-26T18:08:54.619Z,66.86
2018-07-26T18:11:23.961Z,68.09
2018-07-26T18:13:53.318Z,69.46
2018-07-26T18:16:22.272Z,70.03
2018-07-26T18:18:51.221Z,70.49
2018-07-26T18:21:20.692Z,72.46
2018-07-26T18:23:49.591Z,71.85
2018-07-26T18:26:18.761Z,72.97
2018-07-26T18:28:47.802Z,73.63
2018-07-26T18:31:16.927Z,74.65
2018-07-26T18:33:46.210Z,74.39
2018-07-26T18:36:15.318Z,75.77
2018-07-26T18:38:44.563Z,75.97
2018-07-26T18:41:13.715Z,77.07
2018-07-26T18:43:42.709Z,77.15
2018-07-26T18:46:11.858Z,79.15
2018-07-26T18:48:41.347Z,78.91
2018-07-26T18:51:10.134Z,78.96
2018-07-26T18:53:39.579Z,79.51
2018-07-26T18:56:08.935Z,78.70
2018-07-26T18:58:37.987Z,79.26
2018-07-26T19:01:07.260Z,79.40
2018-07-26T19:03:36.290Z,78.39
2018-07-26T19:06:05.222Z,79.10
2018-07-26T19:08:34.325Z,79.10
2018-07-26T19:11:03.251Z,79.53
2018-07-26T19:13:32.397Z,80.22
2018-07-26T19:16:01.519Z,79.72
2018-07-26T19:18:30.738Z,79.06
2018-07-26T19:20:59.931Z,78.31
2018-07-26T19:23:29.023Z,77.68
2018-07-26T19:25:59.864Z,77.11
2018-07-26T19:28:28.955Z,77.89
2018-07-26T19:30:58.150Z,77.42
2018-07-26T19:33:27.342Z,77.91
2018-07-26T19:35:56.434Z,78.71
2018-07-26T19:38:25.694Z,78.64
2018-07-26T19:40:55.000Z,77.78
2018-07-26T19:43:24.283Z,78.82
2018-07-26T19:45:53.399Z,78.06
2018-07-26T19:48:22.266Z,77.50
2018-07-26T19:50:51.363Z,77.54
2018-07-26T19:53:20.309Z,77.21
2018-07-26T19:55:49.481Z,77.67
2018-07-26T19:58:18.342Z,78.26
2018-07-26T20:00:47.564Z,78.05
2018-07-26T20:03:16.538Z,77.12
2018-07-26T20:05:45.726Z,77.20
2018-07-26T20:08:14.820Z,77.96
2018-07-26T20:10:43.790Z,77.54
2018-07-26T20:13:13.060Z,76.45
2018-07-26T20:15:42.182Z,76.76
2018-07-26T20:18:11.436Z,76.23
2018-07-26T20:20:40.438Z,76.97
2018-07-26T20:23:09.646Z,76.57
2018-07-26T20:25:45.442Z,76.23
2018-07-26T20:28:14.718Z,75.59
2018-07-26T20:30:43.721Z,75.25
2018-07-26T20:33:12.907Z,75.76
2018-07-26T20:35:41.707Z,75.80
2018-07-26T20:38:10.718Z,74.03
2018-07-26T20:40:39.647Z,73.10
2018-07-26T20:43:08.738Z,73.56
2018-07-26T20:45:37.834Z,74.32
2018-07-26T20:48:06.966Z,75.09
2018-07-26T20:50:35.877Z,76.07
2018-07-26T20:53:05.163Z,75.44
2018-07-26T20:55:33.972Z,76.38
2018-07-26T20:58:02.778Z,75.60
2018-07-26T21:00:31.478Z,75.17
2018-07-26T21:03:00.519Z,75.14
2018-07-26T21:05:29.729Z,75.90
2018-07-26T21:07:59.170Z,76.57
2018-07-26T21:10:28.183Z,76.90
2018-07-26T21:12:57.002Z,77.29
2018-07-26T21:15:26.084Z,77.36
2018-07-26T21:17:55.248Z,77.19
2018-07-26T21:20:24.334Z,77.68
2018-07-26T21:22:53.475Z,78.75
2018-07-26T21:25:22.640Z,78.82
2018-07-26T21:27:51.729Z,78.21
2018-07-26T21:30:21.014Z,78.11
2018-07-26T21:32:49.706Z,78.36
2018-07-26T21:35:18.916Z,77.59
2018-07-26T21:37:48.173Z,77.65
2018-07-26T21:40:17.274Z,76.65
2018-07-26T21:42:46.143Z,74.94
2018-07-26T21:45:14.972Z,76.50
2018-07-26T21:47:43.737Z,75.08
2018-07-26T21:50:12.706Z,76.52
2018-07-26T21:52:41.844Z,75.56
2018-07-26T21:55:10.977Z,75.14
2018-07-26T21:57:40.517Z,75.53
2018-07-26T22:00:11.126Z,74.07
2018-07-26T22:02:40.476Z,73.65
2018-07-26T22:05:09.707Z,73.03
2018-07-26T22:07:39.042Z,72.91
2018-07-26T22:10:08.097Z,71.87
2018-07-26T22:12:37.311Z,71.84
2018-07-26T22:15:06.953Z,71.67
2018-07-26T22:17:36.255Z,70.65
2018-07-26T22:20:05.801Z,70.92
2018-07-26T22:22:35.147Z,71.42
2018-07-26T22:25:04.222Z,70.64
2018-07-26T22:27:33.434Z,71.20
2018-07-26T22:30:02.303Z,70.54
2018-07-26T22:32:31.512Z,70.98
2018-07-26T22:35:00.670Z,70.21
2018-07-26T22:37:29.630Z,70.27
2018-07-26T22:39:58.622Z,69.93
2018-07-26T22:42:27.779Z,70.59
2018-07-26T22:44:56.920Z,70.32
2018-07-26T22:47:25.844Z,71.12
2018-07-26T22:49:55.074Z,71.54
2018-07-26T22:52:24.390Z,72.71
2018-07-26T22:54:53.490Z,74.35
2018-07-26T22:57:22.642Z,74.48
2018-07-26T22:59:51.553Z,74.24
2018-07-26T23:02:20.812Z,73.37
2018-07-26T23:04:51.577Z,73.59
2018-07-26T23:07:20.562Z,73.58
2018-07-26T23:09:49.458Z,74.93
2018-07-26T23:12:19.112Z,74.71
2018-07-26T23:14:48.354Z,74.29
2018-07-26T23:17:17.612Z,75.07
2018-07-26T23:19:46.855Z,74.39
2018-07-26T23:22:16.335Z,74.43
2018-07-26T23:24:45.462Z,75.03
2018-07-26T23:27:14.646Z,76.20
2018-07-26T23:29:43.683Z,77.07
2018-07-26T23:32:12.913Z,77.31
2018-07-26T23:34:41.699Z,77.07
2018-07-26T23:37:11.047Z,78.00
2018-07-26T23:39:40.190Z,78.21
2018-07-26T23:42:09.507Z,77.46
2018-07-26T23:44:38.808Z,77.46
2018-07-26T23:47:07.622Z,78.02
2018-07-26T23:49:36.787Z,78.41
2018-07-26T23:52:05.870Z,77.95
2018-07-26T23:54:35.077Z,78.83
2018-07-26T23:57:04.333Z,78.67
2018-07-26T23:59:33.222Z,77.86
